KENV/ENV METAR and TAF weather

Enter ICAO airport designator
Station Type Date Time Source
KENV METAR 2023/02/04 01:56 UTC NOAA

KENV 040156Z AUTO 00000KT 10SM CLR M04/M08 A3029 RMK AO2 SLP304 T10441078 FZRANO PNO $


Station Type Date Time Source
KENV Decoded METAR 2023/02/04 01:56 UTC NOAA

Wendover / Air Force Auxillary Field, UT, United States (KENV) 40-44N 114-02W 1292M
Feb 03, 2023 - 08:56 PM EST / 2023.02.04 0156 UTC
Wind: Calm:0
Visibility: 10 mile(s):0
Sky conditions: clear
Temperature: 24.1 F (-4.4 C)
Dew Point: 18.0 F (-7.8 C)
Relative Humidity: 77%
Pressure (altimeter): 30.29 in. Hg (1025 hPa)
ob: KENV 040156Z AUTO 00000KT 10SM CLR M04/M08 A3029 RMK AO2 SLP304 T10441078 FZRANO PNO
cycle: 2

Station Type Date Time Source
KENV TAF 2023/02/03 18:42 UTC NOAA

TAF KENV 031740Z 0318/0418 12003KT P6SM BKN200
FM040200 VRB03KT P6SM SCT200
FM041700 12003KT P6SM FEW150 BKN200

Example: see airport list